createdAt,value
2018-10-19T00:00:02.952Z,51.50
2018-10-19T00:02:32.110Z,65.73
2018-10-19T00:05:01.267Z,57.20
2018-10-19T00:07:30.397Z,61.97
2018-10-19T00:09:59.529Z,61.37
2018-10-19T00:12:28.782Z,73.47
2018-10-19T00:14:57.944Z,64.30
2018-10-19T00:17:27.113Z,63.33
2018-10-19T00:19:56.217Z,64.37
2018-10-19T00:22:25.400Z,56.00
2018-10-19T00:24:54.579Z,56.03
2018-10-19T00:27:23.801Z,55.33
2018-10-19T00:29:52.987Z,54.07
2018-10-19T00:32:22.406Z,63.73
2018-10-19T00:34:51.564Z,62.43
2018-10-19T00:37:21.053Z,66.87
2018-10-19T00:39:50.252Z,67.60
2018-10-19T00:42:19.440Z,66.40
2018-10-19T00:44:48.595Z,71.90
2018-10-19T00:47:17.725Z,73.83
2018-10-19T00:49:46.949Z,76.37
2018-10-19T00:52:16.347Z,74.57
2018-10-19T00:54:45.471Z,76.83
2018-10-19T00:57:14.761Z,70.73
2018-10-19T00:59:44.488Z,76.90
2018-10-19T01:02:13.617Z,79.23
2018-10-19T01:04:42.841Z,73.47
2018-10-19T01:07:12.009Z,80.07
2018-10-19T01:09:41.144Z,74.33
2018-10-19T01:12:10.284Z,74.50
2018-10-19T01:14:39.435Z,84.23
2018-10-19T01:17:08.664Z,78.23
2018-10-19T01:19:37.805Z,81.17
2018-10-19T01:22:06.985Z,78.93
2018-10-19T01:24:36.744Z,72.67
2018-10-19T01:27:06.292Z,77.00
2018-10-19T01:29:35.433Z,86.83
2018-10-19T01:32:04.592Z,75.77
2018-10-19T01:34:34.510Z,70.40
2018-10-19T01:37:05.066Z,70.83
2018-10-19T01:39:34.252Z,71.83
2018-10-19T01:42:03.414Z,75.50
2018-10-19T01:44:32.677Z,83.90
2018-10-19T01:47:02.547Z,91.37
2018-10-19T01:49:31.708Z,99.27
2018-10-19T01:52:00.876Z,79.07
2018-10-19T01:54:30.017Z,102.57
2018-10-19T01:56:59.256Z,92.23
2018-10-19T01:59:28.445Z,84.27
2018-10-19T02:01:57.709Z,85.67
2018-10-19T02:04:26.880Z,78.33
2018-10-19T02:06:56.079Z,82.53
2018-10-19T02:09:25.344Z,74.00
2018-10-19T02:11:54.591Z,88.20
2018-10-19T02:14:23.895Z,79.03
2018-10-19T02:16:53.123Z,79.80
2018-10-19T02:19:22.294Z,86.10
2018-10-19T02:21:51.487Z,82.73
2018-10-19T02:24:20.704Z,90.27
2018-10-19T02:26:49.882Z,77.93
2018-10-19T02:29:18.998Z,82.83
2018-10-19T02:31:48.222Z,69.50
2018-10-19T02:34:17.468Z,70.93
2018-10-19T02:36:46.654Z,67.80
2018-10-19T02:39:15.895Z,68.93
2018-10-19T02:41:44.972Z,72.00
2018-10-19T02:44:14.151Z,71.10
2018-10-19T02:46:43.304Z,69.40
2018-10-19T02:49:12.484Z,68.23
2018-10-19T02:51:42.460Z,66.93
2018-10-19T02:54:11.977Z,63.17
2018-10-19T02:56:41.226Z,63.57
2018-10-19T02:59:10.495Z,65.03
2018-10-19T03:01:39.634Z,71.43
2018-10-19T03:04:08.865Z,87.07
2018-10-19T03:06:38.652Z,100.40
2018-10-19T03:09:10.501Z,117.23
2018-10-19T03:11:40.510Z,117.63
2018-10-19T03:14:09.709Z,82.53
2018-10-19T03:16:38.980Z,75.10
2018-10-19T03:19:08.378Z,79.53
2018-10-19T03:21:37.513Z,78.77
2018-10-19T03:24:06.660Z,77.60
2018-10-19T03:26:35.823Z,61.50
2018-10-19T03:29:05.177Z,71.27
2018-10-19T03:31:34.346Z,71.90
2018-10-19T03:34:03.696Z,63.80
2018-10-19T03:36:32.838Z,73.90
2018-10-19T03:39:02.218Z,71.63
2018-10-19T03:41:31.286Z,64.67
2018-10-19T03:44:00.524Z,80.00
2018-10-19T03:46:29.684Z,78.03
2018-10-19T03:48:58.969Z,77.80
2018-10-19T03:51:28.005Z,91.90
2018-10-19T03:53:57.204Z,98.00
2018-10-19T03:56:26.435Z,102.93
2018-10-19T03:58:55.689Z,109.80
2018-10-19T04:01:24.828Z,112.03
2018-10-19T04:03:54.124Z,118.33
2018-10-19T04:06:29.634Z,112.97
2018-10-19T04:08:58.825Z,108.97
2018-10-19T04:11:27.978Z,115.40
2018-10-19T04:13:57.155Z,105.70
2018-10-19T04:16:26.420Z,105.90
2018-10-19T04:18:55.603Z,98.60
2018-10-19T04:21:24.757Z,108.53
2018-10-19T04:23:53.954Z,115.73
2018-10-19T04:26:23.117Z,111.57
2018-10-19T04:28:52.290Z,129.77
2018-10-19T04:31:21.556Z,113.73
2018-10-19T04:33:50.811Z,107.57
2018-10-19T04:36:20.017Z,116.13
2018-10-19T04:38:49.809Z,97.23
2018-10-19T04:41:19.683Z,92.73
2018-10-19T04:43:48.779Z,103.90
2018-10-19T04:46:17.997Z,101.73
2018-10-19T04:48:47.176Z,98.87
2018-10-19T04:51:16.472Z,102.80
2018-10-19T04:53:46.021Z,103.20
2018-10-19T04:56:15.144Z,94.27
2018-10-19T04:58:44.270Z,86.70
2018-10-19T05:01:13.445Z,90.93
2018-10-19T05:03:42.580Z,95.23
2018-10-19T05:06:11.938Z,135.70
2018-10-19T05:08:41.054Z,144.97
2018-10-19T05:11:10.357Z,128.27
2018-10-19T05:13:40.145Z,140.03
2018-10-19T05:16:09.350Z,127.57
2018-10-19T05:18:39.163Z,122.63
2018-10-19T05:21:08.265Z,117.87
2018-10-19T05:23:37.401Z,105.43
2018-10-19T05:26:06.683Z,126.03
2018-10-19T05:28:35.903Z,110.17
2018-10-19T05:31:05.124Z,111.83
2018-10-19T05:33:34.893Z,101.00
2018-10-19T05:36:04.216Z,111.73
2018-10-19T05:38:33.964Z,111.23
2018-10-19T05:41:03.175Z,112.67
2018-10-19T05:43:34.977Z,114.30
2018-10-19T05:46:04.129Z,112.60
2018-10-19T05:48:33.249Z,115.50
2018-10-19T05:51:02.905Z,112.37
2018-10-19T05:53:32.168Z,101.27
2018-10-19T05:56:02.153Z,104.20
2018-10-19T05:58:31.242Z,107.20
2018-10-19T06:01:01.097Z,133.07
2018-10-19T06:03:30.299Z,146.47
2018-10-19T06:05:59.420Z,149.67
2018-10-19T06:08:28.691Z,158.83
2018-10-19T06:10:57.859Z,137.77
2018-10-19T06:13:27.496Z,168.73
2018-10-19T06:15:56.626Z,160.83
2018-10-19T06:18:25.773Z,156.70
2018-10-19T06:20:55.791Z,148.27
2018-10-19T06:23:24.989Z,160.50
2018-10-19T06:25:54.169Z,154.57
2018-10-19T06:28:23.409Z,138.13
2018-10-19T06:30:52.663Z,144.47
2018-10-19T06:33:21.829Z,111.60
2018-10-19T06:35:51.679Z,109.77
2018-10-19T06:38:21.000Z,101.10
2018-10-19T06:40:50.297Z,88.60
2018-10-19T06:43:19.466Z,86.97
2018-10-19T06:45:48.713Z,83.67
2018-10-19T06:48:17.949Z,82.50
2018-10-19T06:50:47.104Z,78.20
2018-10-19T06:53:16.294Z,70.40
2018-10-19T06:55:46.145Z,72.50
2018-10-19T06:58:15.257Z,65.30
2018-10-19T07:00:44.401Z,63.67
2018-10-19T07:03:13.616Z,65.30
2018-10-19T07:05:42.913Z,80.07
2018-10-19T07:08:12.774Z,62.13
2018-10-19T07:10:42.575Z,61.93
2018-10-19T07:13:11.701Z,59.70
2018-10-19T07:15:40.909Z,56.90
2018-10-19T07:18:10.095Z,61.07
2018-10-19T07:20:39.273Z,68.37
2018-10-19T07:23:08.574Z,69.23
2018-10-19T07:25:37.756Z,65.63
2018-10-19T07:28:06.984Z,64.50
2018-10-19T07:30:36.273Z,70.60
2018-10-19T07:33:05.411Z,67.97
2018-10-19T07:35:35.268Z,70.20
2018-10-19T07:38:04.667Z,67.47
2018-10-19T07:40:33.811Z,69.73
2018-10-19T07:43:03.018Z,70.50
2018-10-19T07:45:32.630Z,68.07
2018-10-19T07:48:02.562Z,69.50
2018-10-19T07:50:32.198Z,70.20
2018-10-19T07:53:01.719Z,69.03
2018-10-19T07:55:30.816Z,71.83
2018-10-19T07:57:59.938Z,66.53
2018-10-19T08:00:29.140Z,74.63
2018-10-19T08:02:58.216Z,77.70
2018-10-19T08:05:27.384Z,68.33
2018-10-19T08:07:56.637Z,73.23
2018-10-19T08:10:25.812Z,73.17
2018-10-19T08:12:55.106Z,65.77
2018-10-19T08:15:25.412Z,64.87
2018-10-19T08:17:54.640Z,65.00
2018-10-19T08:20:23.788Z,61.67
2018-10-19T08:22:53.092Z,63.33
2018-10-19T08:25:22.879Z,57.67
2018-10-19T08:27:51.979Z,66.33
2018-10-19T08:30:21.131Z,59.10
2018-10-19T08:32:50.293Z,68.70
2018-10-19T08:35:19.990Z,63.57
2018-10-19T08:37:49.150Z,61.27
2018-10-19T08:40:18.389Z,60.27
2018-10-19T08:42:47.637Z,60.87
2018-10-19T08:45:16.884Z,62.37
2018-10-19T08:47:46.057Z,60.63
2018-10-19T08:50:15.163Z,63.73
2018-10-19T08:52:44.280Z,60.37
2018-10-19T08:55:14.114Z,56.50
2018-10-19T08:57:43.906Z,61.80
2018-10-19T09:00:13.416Z,60.90
2018-10-19T09:02:42.762Z,57.90
2018-10-19T09:05:12.628Z,55.50
2018-10-19T09:07:42.395Z,58.83
2018-10-19T09:10:11.516Z,62.83
2018-10-19T09:12:40.807Z,57.10
2018-10-19T09:15:09.982Z,51.17
2018-10-19T09:17:39.216Z,67.97
2018-10-19T09:20:08.856Z,60.07
2018-10-19T09:22:37.968Z,62.40
2018-10-19T09:25:07.167Z,60.30
2018-10-19T09:27:36.571Z,59.50
2018-10-19T09:30:06.854Z,63.27
2018-10-19T09:32:36.009Z,66.93
2018-10-19T09:35:05.891Z,64.80
2018-10-19T09:37:35.005Z,62.93
2018-10-19T09:40:05.089Z,64.60
2018-10-19T09:42:34.209Z,62.03
2018-10-19T09:45:03.467Z,69.60
2018-10-19T09:47:32.689Z,73.97
2018-10-19T09:50:01.776Z,69.43
2018-10-19T09:52:31.204Z,65.13
2018-10-19T09:55:00.528Z,66.43
2018-10-19T09:57:29.695Z,64.27
2018-10-19T09:59:59.428Z,66.60
2018-10-19T10:02:28.622Z,67.50
2018-10-19T10:04:57.883Z,76.03
2018-10-19T10:07:27.069Z,64.47
2018-10-19T10:09:56.333Z,74.93
2018-10-19T10:12:25.471Z,61.90
2018-10-19T10:14:54.636Z,67.70
2018-10-19T10:17:23.697Z,64.60
2018-10-19T10:19:52.918Z,64.53
2018-10-19T10:22:22.174Z,61.17
2018-10-19T10:24:52.239Z,65.93
2018-10-19T10:27:21.336Z,66.63
2018-10-19T10:29:50.498Z,70.00
2018-10-19T10:32:19.635Z,64.93
2018-10-19T10:34:48.702Z,61.23
2018-10-19T10:37:18.589Z,62.80
2018-10-19T10:39:48.307Z,68.40
2018-10-19T10:42:17.429Z,58.53
2018-10-19T10:44:46.598Z,66.53
2018-10-19T10:47:16.318Z,66.00
2018-10-19T10:49:45.471Z,63.53
2018-10-19T10:52:14.656Z,66.63
2018-10-19T10:54:43.730Z,63.37
2018-10-19T10:57:12.819Z,62.33
2018-10-19T10:59:42.027Z,64.87
2018-10-19T11:02:11.307Z,67.93
2018-10-19T11:04:40.630Z,70.27
2018-10-19T11:07:09.841Z,69.30
2018-10-19T11:09:38.935Z,67.87
2018-10-19T11:12:08.633Z,63.33
2018-10-19T11:14:37.798Z,64.00
2018-10-19T11:17:06.909Z,68.70
2018-10-19T11:19:36.075Z,70.40
2018-10-19T11:22:05.393Z,71.57
2018-10-19T11:24:35.191Z,62.57
2018-10-19T11:27:04.661Z,66.70
2018-10-19T11:29:34.544Z,70.73
2018-10-19T11:32:03.707Z,69.23
2018-10-19T11:34:32.979Z,70.23
2018-10-19T11:37:02.211Z,72.50
2018-10-19T11:39:31.998Z,62.90
2018-10-19T11:42:01.175Z,69.30
2018-10-19T11:44:30.499Z,68.50
2018-10-19T11:47:01.230Z,69.93
2018-10-19T11:49:30.765Z,71.23
2018-10-19T11:51:59.901Z,67.87
2018-10-19T11:54:29.066Z,72.10
2018-10-19T11:56:58.752Z,74.50
2018-10-19T11:59:28.100Z,66.90
2018-10-19T12:01:57.376Z,67.13
2018-10-19T12:04:26.608Z,77.80
2018-10-19T12:06:55.784Z,67.23
2018-10-19T12:09:24.932Z,76.93
2018-10-19T12:11:54.089Z,70.93
2018-10-19T12:14:23.288Z,70.23
2018-10-19T12:16:52.596Z,69.93
2018-10-19T12:19:21.673Z,66.60
2018-10-19T12:21:50.826Z,66.33
2018-10-19T12:24:19.945Z,69.30
2018-10-19T12:26:49.115Z,67.00
2018-10-19T12:29:18.257Z,65.43
2018-10-19T12:31:47.329Z,65.13
2018-10-19T12:34:16.527Z,64.00
2018-10-19T12:36:45.733Z,63.50
2018-10-19T12:39:16.107Z,70.43
2018-10-19T12:41:45.223Z,66.10
2018-10-19T12:44:14.409Z,63.20
2018-10-19T12:46:54.829Z,64.87
2018-10-19T12:49:24.344Z,65.70
2018-10-19T12:51:53.475Z,72.30
2018-10-19T12:54:22.661Z,69.80
2018-10-19T12:56:51.757Z,63.93
2018-10-19T12:59:20.885Z,69.77
2018-10-19T13:01:50.009Z,68.07
2018-10-19T13:04:19.110Z,67.37
2018-10-19T13:06:48.280Z,74.00
2018-10-19T13:09:17.522Z,70.20
2018-10-19T13:11:47.343Z,78.80
2018-10-19T13:14:17.238Z,70.00
2018-10-19T13:16:46.381Z,65.27
2018-10-19T13:19:15.829Z,67.93
2018-10-19T13:21:45.016Z,59.73
2018-10-19T13:24:14.305Z,72.33
2018-10-19T13:26:43.409Z,60.53
2018-10-19T13:29:12.551Z,60.43
2018-10-19T13:31:41.732Z,57.93
2018-10-19T13:34:10.863Z,55.33
2018-10-19T13:36:40.035Z,58.90
2018-10-19T13:39:10.778Z,56.03
2018-10-19T13:41:40.214Z,53.97
2018-10-19T13:44:09.690Z,57.93
2018-10-19T13:46:38.992Z,57.43
2018-10-19T13:49:08.156Z,53.83
2018-10-19T13:51:37.422Z,57.50
2018-10-19T13:54:06.676Z,57.10
2018-10-19T13:56:35.917Z,57.53
2018-10-19T13:59:05.384Z,57.23
2018-10-19T14:01:34.492Z,52.20
2018-10-19T14:04:03.656Z,50.87
2018-10-19T14:06:33.508Z,57.53
2018-10-19T14:09:02.750Z,68.47
2018-10-19T14:11:31.958Z,55.57
2018-10-19T14:14:01.132Z,53.00
2018-10-19T14:16:30.393Z,51.07
2018-10-19T14:18:59.610Z,59.50
2018-10-19T14:21:29.694Z,52.40
2018-10-19T14:23:58.898Z,52.47
2018-10-19T14:26:28.823Z,52.20
2018-10-19T14:28:57.970Z,54.37
2018-10-19T14:31:28.315Z,52.97
2018-10-19T14:33:57.482Z,51.83
2018-10-19T14:36:26.800Z,60.80
2018-10-19T14:38:56.047Z,53.13
2018-10-19T14:41:25.146Z,56.40
2018-10-19T14:43:54.320Z,57.10
2018-10-19T14:46:23.553Z,57.97
2018-10-19T14:48:52.785Z,52.27
2018-10-19T14:51:22.002Z,51.43
2018-10-19T14:53:51.769Z,53.97
2018-10-19T14:56:20.896Z,54.03
2018-10-19T14:58:50.012Z,55.90
2018-10-19T15:01:19.240Z,56.23
2018-10-19T15:03:49.240Z,54.57
2018-10-19T15:06:19.106Z,51.83
2018-10-19T15:08:48.235Z,53.30
2018-10-19T15:11:17.651Z,55.03
2018-10-19T15:13:47.370Z,54.23
2018-10-19T15:16:17.062Z,62.30
2018-10-19T15:18:46.349Z,52.23
2018-10-19T15:21:15.472Z,52.40
2018-10-19T15:23:44.633Z,56.23
2018-10-19T15:26:13.882Z,59.47
2018-10-19T15:28:43.172Z,59.37
2018-10-19T15:31:12.324Z,56.60
2018-10-19T15:33:41.494Z,58.63
2018-10-19T15:36:10.837Z,59.40
2018-10-19T15:38:39.926Z,57.97
2018-10-19T15:41:09.056Z,57.37
2018-10-19T15:43:39.434Z,61.10
2018-10-19T15:46:08.576Z,53.47
2018-10-19T15:48:37.695Z,58.97
2018-10-19T15:51:07.024Z,56.27
2018-10-19T15:53:36.141Z,56.53
2018-10-19T15:56:05.516Z,52.73
2018-10-19T15:58:34.669Z,54.93
2018-10-19T16:01:03.805Z,51.90
2018-10-19T16:03:32.936Z,53.67
2018-10-19T16:06:02.259Z,51.00
2018-10-19T16:08:31.454Z,54.90
2018-10-19T16:11:00.856Z,53.00
2018-10-19T16:13:30.664Z,57.10
2018-10-19T16:15:59.867Z,51.63
2018-10-19T16:18:29.031Z,55.80
2018-10-19T16:20:59.556Z,54.53
2018-10-19T16:23:28.805Z,58.77
2018-10-19T16:25:57.992Z,54.47
2018-10-19T16:28:27.326Z,57.73
2018-10-19T16:30:56.453Z,57.80
2018-10-19T16:33:26.514Z,58.43
2018-10-19T16:35:55.756Z,57.70
2018-10-19T16:38:24.974Z,59.43
2018-10-19T16:40:54.814Z,58.50
2018-10-19T16:43:24.034Z,64.43
2018-10-19T16:45:53.340Z,62.43
2018-10-19T16:48:23.003Z,61.37
2018-10-19T16:50:52.181Z,60.53
2018-10-19T16:53:21.347Z,69.57
2018-10-19T16:55:50.801Z,60.20
2018-10-19T16:58:20.534Z,60.33
2018-10-19T17:00:49.707Z,70.47
2018-10-19T17:03:18.882Z,60.60
2018-10-19T17:05:47.972Z,62.63
2018-10-19T17:08:17.925Z,63.50
2018-10-19T17:10:48.061Z,64.40
2018-10-19T17:13:18.683Z,60.07
2018-10-19T17:15:47.879Z,62.97
2018-10-19T17:18:17.067Z,64.57
2018-10-19T17:20:47.460Z,63.90
2018-10-19T17:23:16.597Z,64.83
2018-10-19T17:25:46.296Z,68.50
2018-10-19T17:28:15.707Z,63.10
2018-10-19T17:30:44.989Z,70.27
2018-10-19T17:33:15.112Z,66.77
2018-10-19T17:35:44.802Z,68.47
2018-10-19T17:38:14.622Z,67.50
2018-10-19T17:40:43.767Z,67.97
2018-10-19T17:43:12.923Z,71.37
2018-10-19T17:45:42.084Z,68.23
2018-10-19T17:48:11.917Z,69.57
2018-10-19T17:50:41.680Z,72.27
2018-10-19T17:53:10.859Z,71.73
2018-10-19T17:55:39.955Z,72.90
2018-10-19T17:58:09.794Z,69.33
2018-10-19T18:00:39.019Z,69.70
2018-10-19T18:03:08.936Z,76.90
2018-10-19T18:05:38.011Z,75.23
2018-10-19T18:08:07.196Z,69.67
2018-10-19T18:10:37.254Z,70.73
2018-10-19T18:13:06.769Z,75.80
2018-10-19T18:15:36.695Z,78.67
2018-10-19T18:18:05.856Z,91.73
2018-10-19T18:20:35.186Z,88.67
2018-10-19T18:23:04.689Z,91.97
2018-10-19T18:25:33.698Z,82.13
2018-10-19T18:28:02.904Z,80.60
2018-10-19T18:30:32.112Z,71.20
2018-10-19T18:33:01.196Z,81.40
2018-10-19T18:35:30.335Z,77.23
2018-10-19T18:37:59.568Z,78.87
2018-10-19T18:40:28.788Z,82.87
2018-10-19T18:42:57.950Z,101.87
2018-10-19T18:45:27.891Z,103.10
2018-10-19T18:47:57.038Z,112.23
2018-10-19T18:50:26.805Z,103.27
2018-10-19T18:52:56.491Z,104.67
2018-10-19T18:55:25.589Z,103.43
2018-10-19T18:57:55.150Z,104.00
2018-10-19T19:00:25.349Z,96.10
2018-10-19T19:02:54.503Z,94.47
2018-10-19T19:05:23.630Z,105.53
2018-10-19T19:07:53.619Z,88.83
2018-10-19T19:10:22.772Z,101.23
2018-10-19T19:12:57.237Z,110.40
2018-10-19T19:15:26.486Z,112.20
2018-10-19T19:17:56.452Z,114.60
2018-10-19T19:20:26.170Z,116.70
2018-10-19T19:22:55.310Z,111.93
2018-10-19T19:25:30.287Z,111.93
2018-10-19T19:27:59.472Z,99.80
2018-10-19T19:30:28.810Z,108.00
2018-10-19T19:33:03.819Z,110.40
2018-10-19T19:35:33.163Z,105.20
2018-10-19T19:38:02.350Z,104.43
2018-10-19T19:40:35.757Z,100.30
2018-10-19T19:43:05.938Z,111.00
2018-10-19T19:45:35.135Z,112.57
2018-10-19T19:48:09.701Z,106.53
2018-10-19T19:50:38.907Z,116.73
2018-10-19T19:53:08.238Z,105.17
2018-10-19T19:55:37.859Z,131.80
2018-10-19T19:58:07.030Z,129.00
2018-10-19T20:00:36.492Z,134.57
2018-10-19T20:03:05.794Z,130.03
2018-10-19T20:05:34.595Z,132.10
2018-10-19T20:08:04.556Z,144.33
2018-10-19T20:10:33.716Z,140.37
2018-10-19T20:13:03.876Z,130.03
2018-10-19T20:15:33.117Z,130.93
2018-10-19T20:18:02.405Z,124.47
2018-10-19T20:20:31.624Z,135.23
2018-10-19T20:23:01.577Z,141.83
2018-10-19T20:25:30.705Z,122.53
2018-10-19T20:27:59.884Z,121.03
2018-10-19T20:30:29.022Z,123.43
2018-10-19T20:32:58.158Z,129.60
2018-10-19T20:35:27.269Z,136.50
2018-10-19T20:37:56.855Z,120.30
2018-10-19T20:40:25.987Z,118.43
2018-10-19T20:42:55.794Z,121.10
2018-10-19T20:45:25.048Z,131.60
2018-10-19T20:47:54.220Z,121.17
2018-10-19T20:50:24.213Z,111.07
2018-10-19T20:52:53.593Z,119.93
2018-10-19T20:55:23.524Z,110.63
2018-10-19T20:57:53.068Z,128.93
2018-10-19T21:00:22.308Z,130.73
2018-10-19T21:02:51.486Z,135.47
2018-10-19T21:05:20.670Z,131.87
2018-10-19T21:07:49.874Z,145.73
2018-10-19T21:10:19.101Z,141.40
2018-10-19T21:12:48.273Z,125.90
2018-10-19T21:15:17.443Z,141.93
2018-10-19T21:17:46.725Z,144.93
2018-10-19T21:20:16.019Z,158.50
2018-10-19T21:22:45.180Z,163.83
2018-10-19T21:25:14.309Z,203.03
2018-10-19T21:27:43.481Z,148.60
2018-10-19T21:30:13.231Z,159.63
2018-10-19T21:32:42.564Z,166.73
2018-10-19T21:35:12.314Z,177.70
2018-10-19T21:37:41.459Z,179.30
2018-10-19T21:40:10.733Z,184.47
2018-10-19T21:42:39.954Z,167.77
2018-10-19T21:45:09.414Z,169.07
2018-10-19T21:47:38.535Z,162.27
2018-10-19T21:50:08.691Z,172.20
2018-10-19T21:52:37.891Z,159.30
2018-10-19T21:55:08.663Z,171.43
2018-10-19T21:57:37.978Z,166.70
2018-10-19T22:00:08.146Z,163.83
2018-10-19T22:02:37.360Z,158.27
2018-10-19T22:05:06.763Z,166.53
2018-10-19T22:07:36.001Z,181.97
2018-10-19T22:10:05.365Z,169.33
2018-10-19T22:12:34.681Z,164.27
2018-10-19T22:15:04.008Z,187.40
2018-10-19T22:17:33.231Z,197.80
2018-10-19T22:20:02.358Z,209.77
2018-10-19T22:22:32.244Z,193.07
2018-10-19T22:25:01.573Z,189.20
2018-10-19T22:27:30.685Z,167.43
2018-10-19T22:29:59.911Z,172.80
2018-10-19T22:32:29.850Z,154.17
2018-10-19T22:35:00.236Z,158.57
2018-10-19T22:37:29.360Z,156.67
2018-10-19T22:39:58.585Z,141.30
2018-10-19T22:42:27.797Z,153.93
2018-10-19T22:44:57.019Z,140.33
2018-10-19T22:47:26.253Z,159.63
2018-10-19T22:49:56.129Z,162.90
2018-10-19T22:52:25.324Z,141.87
2018-10-19T22:54:55.068Z,158.33
2018-10-19T22:57:24.193Z,168.00
2018-10-19T22:59:53.426Z,158.80
2018-10-19T23:02:22.598Z,161.40
2018-10-19T23:04:51.793Z,148.77
2018-10-19T23:07:21.047Z,182.27
2018-10-19T23:09:50.213Z,188.30
2018-10-19T23:12:19.332Z,207.87
2018-10-19T23:14:48.562Z,190.60
2018-10-19T23:17:17.682Z,167.57
2018-10-19T23:19:47.859Z,148.00
2018-10-19T23:22:16.993Z,165.13
2018-10-19T23:24:46.123Z,147.03
2018-10-19T23:27:15.234Z,152.90
2018-10-19T23:29:44.984Z,166.60
2018-10-19T23:32:14.253Z,167.00
2018-10-19T23:34:43.590Z,166.47
2018-10-19T23:37:12.780Z,171.10
2018-10-19T23:39:41.845Z,155.77
2018-10-19T23:42:10.943Z,169.37
2018-10-19T23:44:40.930Z,171.27
2018-10-19T23:47:10.277Z,148.77
2018-10-19T23:49:39.441Z,143.50
2018-10-19T23:52:08.660Z,142.80
2018-10-19T23:54:37.853Z,169.60
2018-10-19T23:57:07.777Z,181.63
2018-10-19T23:59:37.027Z,211.63
